createdAt,value
2023-03-07T00:01:03.161Z,-0.50
2023-03-07T00:06:10.514Z,-0.30
2023-03-07T00:11:13.246Z,-0.10
2023-03-07T00:16:18.177Z,0.00
2023-03-07T00:21:22.478Z,-0.40
2023-03-07T00:26:25.974Z,-0.40
2023-03-07T00:31:28.758Z,-0.20
2023-03-07T00:36:31.610Z,0.20
2023-03-07T00:41:34.896Z,0.10
2023-03-07T00:46:37.445Z,0.10
2023-03-07T00:51:39.988Z,1.70
2023-03-07T00:56:43.100Z,0.70
2023-03-07T01:01:45.685Z,0.30
2023-03-07T01:06:48.479Z,0.00
2023-03-07T01:11:51.025Z,0.20
2023-03-07T01:16:54.034Z,0.10
2023-03-07T01:21:56.606Z,0.50
2023-03-07T01:26:59.461Z,0.40
2023-03-07T01:32:02.156Z,0.50
2023-03-07T01:37:05.170Z,0.80
2023-03-07T01:42:08.280Z,0.30
2023-03-07T01:47:10.967Z,0.10
2023-03-07T01:52:30.181Z,0.40
2023-03-07T01:57:37.733Z,0.70
2023-03-07T02:02:46.045Z,0.90
2023-03-07T02:07:56.075Z,0.60
2023-03-07T02:13:02.665Z,0.40
2023-03-07T02:18:06.558Z,0.60
2023-03-07T02:23:13.832Z,0.90
2023-03-07T02:28:19.152Z,0.70
2023-03-07T02:33:25.063Z,1.20
2023-03-07T02:38:38.178Z,0.90
2023-03-07T02:43:41.598Z,1.40
2023-03-07T02:48:44.867Z,1.20
2023-03-07T02:53:47.719Z,0.90
2023-03-07T02:58:50.505Z,0.90
2023-03-07T03:03:53.170Z,1.00
2023-03-07T03:08:55.695Z,1.00
2023-03-07T03:13:58.291Z,4.70
2023-03-07T03:19:01.384Z,4.10
2023-03-07T03:24:07.937Z,4.00
2023-03-07T03:29:11.619Z,3.60
2023-03-07T03:34:14.785Z,2.30
2023-03-07T03:39:17.552Z,2.50
2023-03-07T03:44:24.746Z,2.30
2023-03-07T03:49:27.781Z,2.40
2023-03-07T03:54:31.581Z,1.40
2023-03-07T03:59:34.246Z,1.00
2023-03-07T04:04:37.073Z,1.20
2023-03-07T04:09:40.626Z,1.40
2023-03-07T04:14:44.132Z,1.70
2023-03-07T04:19:48.025Z,2.40
2023-03-07T04:24:50.842Z,2.10
2023-03-07T04:29:53.684Z,2.30
2023-03-07T04:34:57.480Z,2.20
2023-03-07T04:40:00.453Z,3.10
2023-03-07T04:45:04.788Z,2.80
2023-03-07T04:50:08.771Z,2.90
2023-03-07T04:55:12.632Z,2.80
2023-03-07T05:00:16.059Z,2.60
2023-03-07T05:05:19.211Z,1.90
2023-03-07T05:10:21.773Z,1.80
2023-03-07T05:15:24.493Z,2.00
2023-03-07T05:20:27.476Z,1.40
2023-03-07T05:25:30.253Z,0.90
2023-03-07T05:30:32.851Z,1.00
2023-03-07T05:35:35.540Z,0.60
2023-03-07T05:40:40.231Z,0.70
2023-03-07T05:45:44.045Z,0.60
2023-03-07T05:50:46.847Z,0.70
2023-03-07T05:55:49.693Z,0.90
2023-03-07T06:00:54.024Z,1.00
2023-03-07T06:05:57.736Z,1.00
2023-03-07T06:11:00.534Z,1.10
2023-03-07T06:16:03.992Z,1.10
2023-03-07T06:21:08.691Z,1.00
2023-03-07T06:26:16.393Z,1.20
2023-03-07T06:31:22.770Z,1.30
2023-03-07T06:36:25.538Z,1.70
2023-03-07T06:41:32.176Z,1.40
2023-03-07T06:46:36.923Z,1.30
2023-03-07T06:51:45.715Z,1.60
2023-03-07T06:56:48.676Z,1.50
2023-03-07T07:01:55.634Z,1.50
2023-03-07T07:06:59.019Z,1.40
2023-03-07T07:12:04.998Z,1.60
2023-03-07T07:17:09.623Z,1.90
2023-03-07T07:22:12.281Z,1.80
2023-03-07T07:27:15.060Z,2.00
2023-03-07T07:32:18.701Z,1.90
2023-03-07T07:37:21.727Z,2.10
2023-03-07T07:42:24.594Z,2.10
2023-03-07T07:47:40.023Z,2.30
2023-03-07T07:52:42.657Z,2.20
2023-03-07T07:57:45.323Z,2.70
2023-03-07T08:02:51.914Z,2.90
2023-03-07T08:07:54.439Z,2.90
2023-03-07T08:12:56.962Z,2.90
2023-03-07T08:17:59.509Z,3.00
2023-03-07T08:23:02.144Z,3.10
2023-03-07T08:28:05.485Z,3.30
2023-03-07T08:33:08.110Z,3.70
2023-03-07T08:38:10.723Z,3.80
2023-03-07T08:43:13.341Z,3.80
2023-03-07T08:48:16.136Z,3.90
2023-03-07T08:53:18.635Z,4.00
2023-03-07T08:58:21.242Z,4.20
2023-03-07T09:03:23.876Z,4.60
2023-03-07T09:08:26.715Z,4.50
2023-03-07T09:13:29.673Z,4.20
2023-03-07T09:18:32.403Z,4.20
2023-03-07T09:23:35.080Z,5.10
2023-03-07T09:28:37.633Z,5.30
2023-03-07T09:33:40.836Z,4.80
2023-03-07T09:38:43.947Z,4.90
2023-03-07T09:43:56.336Z,4.30
2023-03-07T09:49:20.052Z,4.60
2023-03-07T09:54:36.396Z,6.20
2023-03-07T09:59:44.236Z,7.30
2023-03-07T10:04:58.574Z,6.20
2023-03-07T10:10:05.358Z,5.10
2023-03-07T10:15:47.365Z,4.40
2023-03-07T10:20:58.680Z,4.80
2023-03-07T10:26:47.818Z,6.10
2023-03-07T10:32:11.432Z,7.00
2023-03-07T10:37:20.708Z,6.90
2023-03-07T10:42:32.200Z,6.20
2023-03-07T10:47:34.644Z,6.00
2023-03-07T10:52:46.367Z,6.40
2023-03-07T10:57:48.874Z,6.50
2023-03-07T11:02:51.419Z,6.30
2023-03-07T11:07:54.539Z,6.60
2023-03-07T11:12:58.122Z,6.50
2023-03-07T11:18:00.753Z,6.50
2023-03-07T11:23:26.229Z,6.60
2023-03-07T11:28:32.219Z,7.50
2023-03-07T11:33:44.303Z,7.00
2023-03-07T11:39:19.519Z,7.20
2023-03-07T11:44:46.861Z,6.60
2023-03-07T11:50:17.585Z,7.00
2023-03-07T11:55:36.432Z,6.90
2023-03-07T12:00:53.873Z,6.70
2023-03-07T12:06:08.529Z,6.70
2023-03-07T12:11:13.805Z,6.60
2023-03-07T12:16:44.443Z,6.80
2023-03-07T12:22:05.158Z,6.60
2023-03-07T12:27:17.343Z,7.10
2023-03-07T12:32:28.004Z,6.90
2023-03-07T12:38:05.790Z,6.80
2023-03-07T12:43:37.625Z,7.80
2023-03-07T12:48:48.975Z,7.40
2023-03-07T12:54:08.958Z,7.40
2023-03-07T12:59:13.726Z,6.90
2023-03-07T13:04:36.938Z,7.00
2023-03-07T13:09:48.084Z,7.20
2023-03-07T13:15:01.181Z,7.60
2023-03-07T13:20:15.913Z,6.70
2023-03-07T13:25:21.422Z,7.10
2023-03-07T13:30:29.930Z,6.90
2023-03-07T13:35:32.484Z,6.50
2023-03-07T13:40:34.995Z,7.10
2023-03-07T13:45:37.660Z,6.30
2023-03-07T13:51:04.115Z,6.40
2023-03-07T13:56:16.857Z,6.30
2023-03-07T14:01:23.226Z,6.10
2023-03-07T14:06:37.669Z,6.30
2023-03-07T14:11:45.832Z,6.30
2023-03-07T14:17:43.106Z,5.90
2023-03-07T14:23:20.967Z,6.30
2023-03-07T14:28:29.646Z,5.50
2023-03-07T14:33:34.758Z,5.10
2023-03-07T14:38:40.474Z,4.70
2023-03-07T14:44:15.050Z,5.80
2023-03-07T14:49:39.085Z,5.60
2023-03-07T14:54:45.839Z,5.00
2023-03-07T15:00:28.855Z,4.80
2023-03-07T15:05:57.496Z,4.60
2023-03-07T15:11:06.114Z,4.40
2023-03-07T15:16:14.062Z,4.30
2023-03-07T15:21:20.796Z,4.30
2023-03-07T15:26:27.989Z,4.40
2023-03-07T15:31:47.862Z,5.00
2023-03-07T15:36:51.351Z,4.80
2023-03-07T15:42:02.173Z,4.60
2023-03-07T15:47:14.520Z,4.40
2023-03-07T15:52:32.692Z,4.40
2023-03-07T15:57:48.705Z,4.20
2023-03-07T16:02:51.313Z,4.80
2023-03-07T16:07:57.991Z,5.00
2023-03-07T16:13:01.702Z,4.70
2023-03-07T16:18:05.544Z,4.50
2023-03-07T16:23:12.942Z,4.30
2023-03-07T16:28:15.673Z,4.30
2023-03-07T16:33:18.200Z,4.50
2023-03-07T16:38:21.422Z,4.60
2023-03-07T16:43:36.364Z,4.70
2023-03-07T16:48:38.927Z,5.30
2023-03-07T16:53:41.419Z,6.00
2023-03-07T16:58:44.488Z,9.80
2023-03-07T17:03:47.043Z,10.30
2023-03-07T17:08:53.192Z,9.80
2023-03-07T17:13:59.165Z,9.80
2023-03-07T17:19:01.833Z,9.60
2023-03-07T17:24:04.354Z,9.60
2023-03-07T17:29:13.414Z,9.80
2023-03-07T17:34:25.006Z,11.10
2023-03-07T17:39:29.736Z,10.10
2023-03-07T17:44:32.910Z,9.80
2023-03-07T17:49:37.917Z,9.90
2023-03-07T17:54:40.669Z,10.50
2023-03-07T17:59:43.300Z,9.10
2023-03-07T18:04:46.249Z,9.10
2023-03-07T18:09:56.101Z,9.50
2023-03-07T18:15:13.146Z,10.10
2023-03-07T18:20:17.554Z,10.60
2023-03-07T18:25:20.126Z,10.30
2023-03-07T18:30:22.936Z,9.80
2023-03-07T18:35:25.871Z,9.40
2023-03-07T18:40:28.374Z,9.40
2023-03-07T18:45:30.940Z,9.60
2023-03-07T18:50:33.463Z,9.70
2023-03-07T18:55:38.400Z,10.00
2023-03-07T19:00:41.008Z,9.30
2023-03-07T19:05:48.848Z,9.20
2023-03-07T19:10:51.378Z,9.20
2023-03-07T19:16:19.822Z,10.00
2023-03-07T19:21:25.174Z,9.50
2023-03-07T19:26:27.818Z,10.30
2023-03-07T19:31:32.242Z,10.20
2023-03-07T19:36:35.510Z,9.90
2023-03-07T19:41:39.636Z,10.10
2023-03-07T19:46:46.252Z,9.70
2023-03-07T19:51:49.026Z,9.80
2023-03-07T19:56:52.022Z,10.20
2023-03-07T20:01:54.861Z,9.50
2023-03-07T20:06:57.419Z,10.00
2023-03-07T20:12:00.760Z,10.50
2023-03-07T20:17:03.309Z,10.10
2023-03-07T20:22:05.891Z,10.10
2023-03-07T20:27:08.421Z,10.30
2023-03-07T20:32:11.711Z,9.80
2023-03-07T20:37:14.419Z,10.30
2023-03-07T20:42:17.118Z,10.50
2023-03-07T20:47:19.866Z,10.10
2023-03-07T20:52:24.225Z,9.40
2023-03-07T20:57:27.062Z,9.50
2023-03-07T21:02:29.656Z,9.20
2023-03-07T21:07:32.080Z,9.40
2023-03-07T21:12:36.227Z,9.80
2023-03-07T21:17:38.662Z,9.80
2023-03-07T21:22:41.190Z,10.50
2023-03-07T21:27:43.582Z,10.30
2023-03-07T21:32:46.221Z,10.20
2023-03-07T21:37:48.766Z,10.70
2023-03-07T21:42:51.410Z,11.00
2023-03-07T21:47:54.339Z,10.40
2023-03-07T21:52:57.251Z,10.00
2023-03-07T21:57:59.682Z,10.60
2023-03-07T22:03:02.473Z,9.90
2023-03-07T22:08:05.205Z,9.80
2023-03-07T22:13:08.101Z,10.00
2023-03-07T22:18:10.666Z,10.10
2023-03-07T22:23:13.180Z,9.80
2023-03-07T22:28:19.342Z,10.90
2023-03-07T22:33:21.830Z,10.30
2023-03-07T22:38:26.091Z,11.10
2023-03-07T22:43:31.601Z,11.40
2023-03-07T22:48:34.435Z,10.90
2023-03-07T22:53:36.929Z,10.70
2023-03-07T22:58:39.476Z,10.80
2023-03-07T23:03:42.464Z,10.80
2023-03-07T23:08:47.065Z,10.80
2023-03-07T23:13:49.886Z,11.00
2023-03-07T23:18:55.005Z,11.40
2023-03-07T23:23:59.160Z,11.10
2023-03-07T23:29:01.957Z,11.10
2023-03-07T23:34:15.573Z,10.90
2023-03-07T23:39:19.095Z,11.30
2023-03-07T23:44:21.672Z,11.00
2023-03-07T23:49:24.245Z,11.30
2023-03-07T23:54:26.751Z,10.60
2023-03-07T23:59:29.225Z,10.80
